sensor_id;sensor_type;location;lat;lon;timestamp;P1;durP1;ratioP1;P2;durP2;ratioP2
53207;SDS011;39093;52.788;6.940;2023-07-13T00:00:42;7.30;;;1.90;;
53207;SDS011;39093;52.788;6.940;2023-07-13T00:03:09;8.38;;;1.80;;
53207;SDS011;39093;52.788;6.940;2023-07-13T00:05:40;9.65;;;2.45;;
53207;SDS011;39093;52.788;6.940;2023-07-13T00:08:08;8.90;;;1.50;;
53207;SDS011;39093;52.788;6.940;2023-07-13T00:10:38;13.32;;;2.13;;
53207;SDS011;39093;52.788;6.940;2023-07-13T00:13:08;27.52;;;3.25;;
53207;SDS011;39093;52.788;6.940;2023-07-13T00:15:35;9.43;;;2.28;;
53207;SDS011;39093;52.788;6.940;2023-07-13T00:18:02;11.23;;;2.25;;
53207;SDS011;39093;52.788;6.940;2023-07-13T00:20:30;14.25;;;1.77;;
53207;SDS011;39093;52.788;6.940;2023-07-13T00:22:56;11.05;;;2.38;;
53207;SDS011;39093;52.788;6.940;2023-07-13T00:25:24;9.05;;;2.38;;
53207;SDS011;39093;52.788;6.940;2023-07-13T00:27:55;9.05;;;2.05;;
53207;SDS011;39093;52.788;6.940;2023-07-13T00:30:22;10.93;;;2.42;;
53207;SDS011;39093;52.788;6.940;2023-07-13T00:32:50;9.52;;;2.42;;
53207;SDS011;39093;52.788;6.940;2023-07-13T00:35:30;8.88;;;1.83;;
53207;SDS011;39093;52.788;6.940;2023-07-13T00:37:57;5.78;;;1.85;;
53207;SDS011;39093;52.788;6.940;2023-07-13T00:40:24;10.52;;;2.13;;
53207;SDS011;39093;52.788;6.940;2023-07-13T00:42:52;10.77;;;2.28;;
53207;SDS011;39093;52.788;6.940;2023-07-13T00:47:46;7.70;;;2.17;;
53207;SDS011;39093;52.788;6.940;2023-07-13T00:50:14;7.60;;;2.13;;
53207;SDS011;39093;52.788;6.940;2023-07-13T00:52:43;10.02;;;2.50;;
53207;SDS011;39093;52.788;6.940;2023-07-13T00:55:12;16.90;;;2.55;;
53207;SDS011;39093;52.788;6.940;2023-07-13T00:57:40;8.55;;;2.65;;
53207;SDS011;39093;52.788;6.940;2023-07-13T01:00:11;10.40;;;1.85;;
53207;SDS011;39093;52.788;6.940;2023-07-13T01:02:39;10.55;;;2.90;;
53207;SDS011;39093;52.788;6.940;2023-07-13T01:05:12;7.75;;;2.55;;
53207;SDS011;39093;52.788;6.940;2023-07-13T01:07:40;13.43;;;2.42;;
53207;SDS011;39093;52.788;6.940;2023-07-13T01:10:11;9.90;;;1.73;;
53207;SDS011;39093;52.788;6.940;2023-07-13T01:12:39;9.95;;;2.25;;
53207;SDS011;39093;52.788;6.940;2023-07-13T01:18:03;9.68;;;2.13;;
53207;SDS011;39093;52.788;6.940;2023-07-13T01:20:36;12.23;;;2.03;;
53207;SDS011;39093;52.788;6.940;2023-07-13T01:23:06;9.60;;;2.80;;
53207;SDS011;39093;52.788;6.940;2023-07-13T01:25:39;6.20;;;1.80;;
53207;SDS011;39093;52.788;6.940;2023-07-13T01:28:06;8.93;;;2.00;;
53207;SDS011;39093;52.788;6.940;2023-07-13T01:30:37;12.55;;;2.50;;
53207;SDS011;39093;52.788;6.940;2023-07-13T01:33:07;8.77;;;1.80;;
53207;SDS011;39093;52.788;6.940;2023-07-13T01:35:36;10.73;;;2.25;;
53207;SDS011;39093;52.788;6.940;2023-07-13T01:38:03;12.75;;;2.95;;
53207;SDS011;39093;52.788;6.940;2023-07-13T01:40:31;14.18;;;2.75;;
53207;SDS011;39093;52.788;6.940;2023-07-13T01:43:00;10.23;;;1.85;;
53207;SDS011;39093;52.788;6.940;2023-07-13T01:45:27;17.73;;;3.53;;
53207;SDS011;39093;52.788;6.940;2023-07-13T01:47:55;13.95;;;3.08;;
53207;SDS011;39093;52.788;6.940;2023-07-13T01:50:22;12.93;;;2.90;;
53207;SDS011;39093;52.788;6.940;2023-07-13T01:52:49;10.43;;;2.00;;
53207;SDS011;39093;52.788;6.940;2023-07-13T01:55:16;19.25;;;3.20;;
53207;SDS011;39093;52.788;6.940;2023-07-13T01:57:43;13.75;;;3.28;;
53207;SDS011;39093;52.788;6.940;2023-07-13T02:00:10;9.52;;;2.50;;
53207;SDS011;39093;52.788;6.940;2023-07-13T02:02:38;12.65;;;2.10;;
53207;SDS011;39093;52.788;6.940;2023-07-13T02:05:05;13.73;;;2.42;;
53207;SDS011;39093;52.788;6.940;2023-07-13T02:07:33;16.08;;;2.97;;
53207;SDS011;39093;52.788;6.940;2023-07-13T02:10:00;8.52;;;2.13;;
53207;SDS011;39093;52.788;6.940;2023-07-13T02:12:27;11.32;;;2.83;;
53207;SDS011;39093;52.788;6.940;2023-07-13T02:14:54;12.07;;;2.95;;
53207;SDS011;39093;52.788;6.940;2023-07-13T02:17:21;10.30;;;2.20;;
53207;SDS011;39093;52.788;6.940;2023-07-13T02:19:48;11.02;;;2.10;;
53207;SDS011;39093;52.788;6.940;2023-07-13T02:22:15;12.45;;;2.42;;
53207;SDS011;39093;52.788;6.940;2023-07-13T02:24:42;10.48;;;2.55;;
53207;SDS011;39093;52.788;6.940;2023-07-13T02:27:09;12.25;;;2.80;;
53207;SDS011;39093;52.788;6.940;2023-07-13T02:29:36;12.30;;;3.00;;
53207;SDS011;39093;52.788;6.940;2023-07-13T02:32:03;13.07;;;2.60;;
53207;SDS011;39093;52.788;6.940;2023-07-13T02:34:30;14.30;;;2.55;;
53207;SDS011;39093;52.788;6.940;2023-07-13T02:36:58;13.52;;;2.47;;
53207;SDS011;39093;52.788;6.940;2023-07-13T02:39:25;14.07;;;2.88;;
53207;SDS011;39093;52.788;6.940;2023-07-13T02:41:52;14.32;;;2.92;;
53207;SDS011;39093;52.788;6.940;2023-07-13T02:44:19;13.85;;;3.35;;
53207;SDS011;39093;52.788;6.940;2023-07-13T02:46:46;10.43;;;2.30;;
53207;SDS011;39093;52.788;6.940;2023-07-13T02:49:13;21.45;;;3.85;;
53207;SDS011;39093;52.788;6.940;2023-07-13T02:51:40;10.52;;;2.30;;
53207;SDS011;39093;52.788;6.940;2023-07-13T02:54:10;12.88;;;2.38;;
53207;SDS011;39093;52.788;6.940;2023-07-13T02:56:38;19.70;;;2.80;;
53207;SDS011;39093;52.788;6.940;2023-07-13T02:59:05;10.63;;;2.75;;
53207;SDS011;39093;52.788;6.940;2023-07-13T03:01:32;15.48;;;3.13;;
53207;SDS011;39093;52.788;6.940;2023-07-13T03:04:02;10.85;;;2.55;;
53207;SDS011;39093;52.788;6.940;2023-07-13T03:06:30;11.52;;;2.90;;
53207;SDS011;39093;52.788;6.940;2023-07-13T03:08:58;8.38;;;1.92;;
53207;SDS011;39093;52.788;6.940;2023-07-13T03:11:26;13.07;;;2.90;;
53207;SDS011;39093;52.788;6.940;2023-07-13T03:13:54;13.55;;;2.63;;
53207;SDS011;39093;52.788;6.940;2023-07-13T03:16:21;11.73;;;3.35;;
53207;SDS011;39093;52.788;6.940;2023-07-13T03:18:48;11.07;;;3.15;;
53207;SDS011;39093;52.788;6.940;2023-07-13T03:21:15;11.25;;;2.60;;
53207;SDS011;39093;52.788;6.940;2023-07-13T03:23:42;14.35;;;2.42;;
53207;SDS011;39093;52.788;6.940;2023-07-13T03:26:13;16.42;;;3.15;;
53207;SDS011;39093;52.788;6.940;2023-07-13T03:28:42;13.07;;;2.47;;
53207;SDS011;39093;52.788;6.940;2023-07-13T03:31:11;16.02;;;2.63;;
53207;SDS011;39093;52.788;6.940;2023-07-13T03:33:42;13.50;;;2.58;;
53207;SDS011;39093;52.788;6.940;2023-07-13T03:36:12;10.05;;;2.72;;
53207;SDS011;39093;52.788;6.940;2023-07-13T03:38:42;15.82;;;2.97;;
53207;SDS011;39093;52.788;6.940;2023-07-13T03:41:09;11.95;;;3.65;;
53207;SDS011;39093;52.788;6.940;2023-07-13T03:43:36;11.07;;;2.60;;
53207;SDS011;39093;52.788;6.940;2023-07-13T03:46:03;18.13;;;3.47;;
53207;SDS011;39093;52.788;6.940;2023-07-13T03:48:32;13.05;;;3.58;;
53207;SDS011;39093;52.788;6.940;2023-07-13T03:50:59;9.25;;;2.55;;
53207;SDS011;39093;52.788;6.940;2023-07-13T03:53:26;12.98;;;2.33;;
53207;SDS011;39093;52.788;6.940;2023-07-13T03:55:54;16.17;;;3.35;;
53207;SDS011;39093;52.788;6.940;2023-07-13T03:58:34;11.48;;;2.40;;
53207;SDS011;39093;52.788;6.940;2023-07-13T04:01:07;6.15;;;2.40;;
53207;SDS011;39093;52.788;6.940;2023-07-13T04:03:35;12.15;;;3.08;;
53207;SDS011;39093;52.788;6.940;2023-07-13T04:06:03;10.43;;;3.40;;
53207;SDS011;39093;52.788;6.940;2023-07-13T04:08:33;15.52;;;3.35;;
53207;SDS011;39093;52.788;6.940;2023-07-13T04:11:01;11.05;;;2.70;;
53207;SDS011;39093;52.788;6.940;2023-07-13T04:13:29;13.30;;;2.88;;
53207;SDS011;39093;52.788;6.940;2023-07-13T04:15:58;12.77;;;2.42;;
53207;SDS011;39093;52.788;6.940;2023-07-13T04:18:25;8.90;;;2.45;;
53207;SDS011;39093;52.788;6.940;2023-07-13T04:20:52;8.05;;;2.70;;
53207;SDS011;39093;52.788;6.940;2023-07-13T04:23:19;10.70;;;2.85;;
53207;SDS011;39093;52.788;6.940;2023-07-13T04:25:47;8.52;;;2.42;;
53207;SDS011;39093;52.788;6.940;2023-07-13T04:28:22;11.50;;;3.50;;
53207;SDS011;39093;52.788;6.940;2023-07-13T04:30:53;7.78;;;2.65;;
53207;SDS011;39093;52.788;6.940;2023-07-13T04:33:20;13.65;;;2.88;;
53207;SDS011;39093;52.788;6.940;2023-07-13T04:35:50;14.68;;;3.05;;
53207;SDS011;39093;52.788;6.940;2023-07-13T04:38:23;14.90;;;3.08;;
53207;SDS011;39093;52.788;6.940;2023-07-13T04:40:53;14.35;;;2.53;;
53207;SDS011;39093;52.788;6.940;2023-07-13T04:43:24;13.82;;;3.00;;
53207;SDS011;39093;52.788;6.940;2023-07-13T04:45:52;8.98;;;3.00;;
53207;SDS011;39093;52.788;6.940;2023-07-13T04:48:20;16.50;;;3.95;;
53207;SDS011;39093;52.788;6.940;2023-07-13T04:50:47;12.02;;;3.63;;
53207;SDS011;39093;52.788;6.940;2023-07-13T04:53:20;12.75;;;3.08;;
53207;SDS011;39093;52.788;6.940;2023-07-13T04:55:47;17.15;;;3.03;;
53207;SDS011;39093;52.788;6.940;2023-07-13T04:58:14;15.10;;;3.90;;
53207;SDS011;39093;52.788;6.940;2023-07-13T05:00:41;17.40;;;3.80;;
53207;SDS011;39093;52.788;6.940;2023-07-13T05:03:08;13.38;;;3.28;;
53207;SDS011;39093;52.788;6.940;2023-07-13T05:05:35;18.23;;;3.50;;
53207;SDS011;39093;52.788;6.940;2023-07-13T05:08:02;16.08;;;3.97;;
53207;SDS011;39093;52.788;6.940;2023-07-13T05:10:29;11.70;;;3.65;;
53207;SDS011;39093;52.788;6.940;2023-07-13T05:12:57;9.52;;;3.20;;
53207;SDS011;39093;52.788;6.940;2023-07-13T05:15:24;10.82;;;3.08;;
53207;SDS011;39093;52.788;6.940;2023-07-13T05:17:52;16.05;;;3.65;;
53207;SDS011;39093;52.788;6.940;2023-07-13T05:20:19;14.02;;;3.38;;
53207;SDS011;39093;52.788;6.940;2023-07-13T05:22:46;12.10;;;3.20;;
53207;SDS011;39093;52.788;6.940;2023-07-13T05:25:13;8.98;;;3.47;;
53207;SDS011;39093;52.788;6.940;2023-07-13T05:27:41;11.60;;;3.15;;
53207;SDS011;39093;52.788;6.940;2023-07-13T05:30:08;9.55;;;3.25;;
53207;SDS011;39093;52.788;6.940;2023-07-13T05:32:37;12.35;;;3.50;;
53207;SDS011;39093;52.788;6.940;2023-07-13T05:35:05;14.95;;;3.80;;
53207;SDS011;39093;52.788;6.940;2023-07-13T05:37:32;13.32;;;4.00;;
53207;SDS011;39093;52.788;6.940;2023-07-13T05:39:59;10.23;;;3.47;;
53207;SDS011;39093;52.788;6.940;2023-07-13T05:42:25;12.05;;;3.20;;
53207;SDS011;39093;52.788;6.940;2023-07-13T05:44:58;17.80;;;3.53;;
53207;SDS011;39093;52.788;6.940;2023-07-13T05:47:25;18.25;;;4.10;;
53207;SDS011;39093;52.788;6.940;2023-07-13T05:49:52;12.25;;;3.30;;
53207;SDS011;39093;52.788;6.940;2023-07-13T05:52:19;14.82;;;3.13;;
53207;SDS011;39093;52.788;6.940;2023-07-13T05:54:46;10.80;;;3.25;;
53207;SDS011;39093;52.788;6.940;2023-07-13T05:57:13;13.82;;;4.00;;
53207;SDS011;39093;52.788;6.940;2023-07-13T05:59:40;10.82;;;2.85;;
53207;SDS011;39093;52.788;6.940;2023-07-13T06:02:09;9.00;;;2.88;;
53207;SDS011;39093;52.788;6.940;2023-07-13T06:04:40;12.18;;;3.10;;
53207;SDS011;39093;52.788;6.940;2023-07-13T06:07:07;16.42;;;4.03;;
53207;SDS011;39093;52.788;6.940;2023-07-13T06:09:34;12.23;;;3.53;;
53207;SDS011;39093;52.788;6.940;2023-07-13T06:12:04;12.18;;;3.47;;
53207;SDS011;39093;52.788;6.940;2023-07-13T06:14:34;9.18;;;3.28;;
53207;SDS011;39093;52.788;6.940;2023-07-13T06:17:01;21.95;;;4.80;;
53207;SDS011;39093;52.788;6.940;2023-07-13T06:19:28;12.18;;;3.20;;
53207;SDS011;39093;52.788;6.940;2023-07-13T06:21:55;8.77;;;3.13;;
53207;SDS011;39093;52.788;6.940;2023-07-13T06:24:24;14.32;;;3.90;;
53207;SDS011;39093;52.788;6.940;2023-07-13T06:26:52;13.50;;;3.58;;
53207;SDS011;39093;52.788;6.940;2023-07-13T06:29:19;13.93;;;3.53;;
53207;SDS011;39093;52.788;6.940;2023-07-13T06:31:45;13.80;;;3.63;;
53207;SDS011;39093;52.788;6.940;2023-07-13T06:34:12;12.82;;;3.60;;
53207;SDS011;39093;52.788;6.940;2023-07-13T06:36:39;9.77;;;3.00;;
53207;SDS011;39093;52.788;6.940;2023-07-13T06:39:08;14.38;;;3.88;;
53207;SDS011;39093;52.788;6.940;2023-07-13T06:41:35;14.50;;;3.22;;
53207;SDS011;39093;52.788;6.940;2023-07-13T06:44:02;13.00;;;3.45;;
53207;SDS011;39093;52.788;6.940;2023-07-13T06:46:29;11.15;;;3.00;;
53207;SDS011;39093;52.788;6.940;2023-07-13T06:48:56;17.02;;;3.67;;
53207;SDS011;39093;52.788;6.940;2023-07-13T06:51:23;9.85;;;3.15;;
53207;SDS011;39093;52.788;6.940;2023-07-13T06:53:50;10.10;;;2.58;;
53207;SDS011;39093;52.788;6.940;2023-07-13T06:56:17;7.32;;;2.55;;
53207;SDS011;39093;52.788;6.940;2023-07-13T06:58:44;15.27;;;3.25;;
53207;SDS011;39093;52.788;6.940;2023-07-13T07:01:11;19.17;;;3.78;;
53207;SDS011;39093;52.788;6.940;2023-07-13T07:03:38;10.52;;;2.38;;
53207;SDS011;39093;52.788;6.940;2023-07-13T07:08:35;10.93;;;3.22;;
53207;SDS011;39093;52.788;6.940;2023-07-13T07:11:02;9.75;;;2.15;;
53207;SDS011;39093;52.788;6.940;2023-07-13T07:13:29;9.27;;;2.35;;
53207;SDS011;39093;52.788;6.940;2023-07-13T07:15:56;14.30;;;3.35;;
53207;SDS011;39093;52.788;6.940;2023-07-13T07:18:23;8.18;;;2.92;;
53207;SDS011;39093;52.788;6.940;2023-07-13T07:20:50;10.77;;;3.05;;
53207;SDS011;39093;52.788;6.940;2023-07-13T07:23:17;7.68;;;2.83;;
53207;SDS011;39093;52.788;6.940;2023-07-13T07:25:45;9.77;;;2.75;;
53207;SDS011;39093;52.788;6.940;2023-07-13T07:28:15;14.20;;;2.88;;
53207;SDS011;39093;52.788;6.940;2023-07-13T07:30:48;9.30;;;2.67;;
53207;SDS011;39093;52.788;6.940;2023-07-13T07:33:38;10.60;;;3.13;;
53207;SDS011;39093;52.788;6.940;2023-07-13T07:36:05;14.85;;;3.75;;
53207;SDS011;39093;52.788;6.940;2023-07-13T07:38:35;9.07;;;3.05;;
53207;SDS011;39093;52.788;6.940;2023-07-13T07:41:03;10.68;;;2.92;;
53207;SDS011;39093;52.788;6.940;2023-07-13T07:43:33;6.38;;;2.88;;
53207;SDS011;39093;52.788;6.940;2023-07-13T07:46:01;10.27;;;3.35;;
53207;SDS011;39093;52.788;6.940;2023-07-13T07:48:29;14.85;;;3.75;;
53207;SDS011;39093;52.788;6.940;2023-07-13T07:50:56;11.10;;;3.63;;
53207;SDS011;39093;52.788;6.940;2023-07-13T07:53:23;14.35;;;3.55;;
53207;SDS011;39093;52.788;6.940;2023-07-13T07:55:50;11.25;;;3.45;;
53207;SDS011;39093;52.788;6.940;2023-07-13T07:58:20;8.90;;;3.30;;
53207;SDS011;39093;52.788;6.940;2023-07-13T08:00:51;13.27;;;3.97;;
53207;SDS011;39093;52.788;6.940;2023-07-13T08:03:21;11.50;;;3.75;;
53207;SDS011;39093;52.788;6.940;2023-07-13T08:05:52;11.05;;;3.58;;
53207;SDS011;39093;52.788;6.940;2023-07-13T08:08:23;11.93;;;3.80;;
53207;SDS011;39093;52.788;6.940;2023-07-13T08:10:51;11.68;;;3.60;;
53207;SDS011;39093;52.788;6.940;2023-07-13T08:13:22;9.32;;;3.38;;
53207;SDS011;39093;52.788;6.940;2023-07-13T08:15:52;8.63;;;3.80;;
53207;SDS011;39093;52.788;6.940;2023-07-13T08:18:20;11.52;;;3.33;;
53207;SDS011;39093;52.788;6.940;2023-07-13T08:20:47;12.38;;;3.42;;
53207;SDS011;39093;52.788;6.940;2023-07-13T08:23:14;11.82;;;3.20;;
53207;SDS011;39093;52.788;6.940;2023-07-13T08:25:42;17.55;;;4.07;;
53207;SDS011;39093;52.788;6.940;2023-07-13T08:28:19;11.93;;;3.40;;
53207;SDS011;39093;52.788;6.940;2023-07-13T08:30:48;16.20;;;3.58;;
53207;SDS011;39093;52.788;6.940;2023-07-13T08:33:16;9.48;;;3.17;;
53207;SDS011;39093;52.788;6.940;2023-07-13T08:35:47;11.43;;;3.80;;
53207;SDS011;39093;52.788;6.940;2023-07-13T08:38:15;8.77;;;3.28;;
53207;SDS011;39093;52.788;6.940;2023-07-13T08:40:43;12.43;;;3.30;;
53207;SDS011;39093;52.788;6.940;2023-07-13T08:43:16;10.57;;;3.03;;
53207;SDS011;39093;52.788;6.940;2023-07-13T08:48:19;13.52;;;3.85;;
53207;SDS011;39093;52.788;6.940;2023-07-13T08:51:19;11.60;;;3.28;;
53207;SDS011;39093;52.788;6.940;2023-07-13T08:53:40;9.43;;;3.92;;
53207;SDS011;39093;52.788;6.940;2023-07-13T08:56:19;11.40;;;4.22;;
53207;SDS011;39093;52.788;6.940;2023-07-13T08:58:49;11.57;;;4.18;;
53207;SDS011;39093;52.788;6.940;2023-07-13T09:01:30;14.30;;;3.45;;
53207;SDS011;39093;52.788;6.940;2023-07-13T09:04:09;11.10;;;3.65;;
53207;SDS011;39093;52.788;6.940;2023-07-13T09:06:58;8.52;;;3.53;;
53207;SDS011;39093;52.788;6.940;2023-07-13T09:12:15;14.70;;;3.78;;
53207;SDS011;39093;52.788;6.940;2023-07-13T09:14:49;14.63;;;4.10;;
53207;SDS011;39093;52.788;6.940;2023-07-13T09:17:24;13.43;;;3.58;;
53207;SDS011;39093;52.788;6.940;2023-07-13T09:20:14;11.40;;;3.65;;
53207;SDS011;39093;52.788;6.940;2023-07-13T09:22:49;11.85;;;3.55;;
53207;SDS011;39093;52.788;6.940;2023-07-13T09:25:26;17.73;;;5.03;;
53207;SDS011;39093;52.788;6.940;2023-07-13T09:28:16;16.73;;;6.18;;
53207;SDS011;39093;52.788;6.940;2023-07-13T09:33:41;12.85;;;3.95;;
53207;SDS011;39093;52.788;6.940;2023-07-13T09:36:19;15.38;;;3.60;;
53207;SDS011;39093;52.788;6.940;2023-07-13T09:39:03;8.38;;;2.33;;
53207;SDS011;39093;52.788;6.940;2023-07-13T09:46:47;10.18;;;1.75;;
53207;SDS011;39093;52.788;6.940;2023-07-13T09:49:24;9.02;;;2.90;;
53207;SDS011;39093;52.788;6.940;2023-07-13T09:52:21;4.72;;;1.95;;
53207;SDS011;39093;52.788;6.940;2023-07-13T09:54:53;7.85;;;1.73;;
53207;SDS011;39093;52.788;6.940;2023-07-13T09:57:26;4.90;;;1.70;;
53207;SDS011;39093;52.788;6.940;2023-07-13T10:00:20;4.50;;;2.15;;
53207;SDS011;39093;52.788;6.940;2023-07-13T10:03:05;4.57;;;1.95;;
53207;SDS011;39093;52.788;6.940;2023-07-13T10:05:40;6.22;;;1.95;;
53207;SDS011;39093;52.788;6.940;2023-07-13T10:10:57;6.28;;;1.58;;
53207;SDS011;39093;52.788;6.940;2023-07-13T10:13:26;6.28;;;1.83;;
53207;SDS011;39093;52.788;6.940;2023-07-13T10:15:54;5.38;;;1.83;;
53207;SDS011;39093;52.788;6.940;2023-07-13T10:18:23;3.60;;;1.35;;
53207;SDS011;39093;52.788;6.940;2023-07-13T10:21:09;3.20;;;1.40;;
53207;SDS011;39093;52.788;6.940;2023-07-13T10:24:14;1.33;;;0.90;;
53207;SDS011;39093;52.788;6.940;2023-07-13T10:29:34;5.63;;;1.80;;
53207;SDS011;39093;52.788;6.940;2023-07-13T10:32:08;2.70;;;1.70;;
53207;SDS011;39093;52.788;6.940;2023-07-13T10:34:38;3.42;;;1.50;;
53207;SDS011;39093;52.788;6.940;2023-07-13T10:37:11;6.63;;;2.88;;
53207;SDS011;39093;52.788;6.940;2023-07-13T10:39:45;4.10;;;2.30;;
53207;SDS011;39093;52.788;6.940;2023-07-13T10:42:13;4.05;;;2.50;;
53207;SDS011;39093;52.788;6.940;2023-07-13T10:44:48;5.75;;;2.22;;
53207;SDS011;39093;52.788;6.940;2023-07-13T10:47:15;6.93;;;2.85;;
53207;SDS011;39093;52.788;6.940;2023-07-13T10:49:44;5.57;;;2.75;;
53207;SDS011;39093;52.788;6.940;2023-07-13T10:58:24;5.47;;;3.95;;
53207;SDS011;39093;52.788;6.940;2023-07-13T11:01:06;5.93;;;3.60;;
53207;SDS011;39093;52.788;6.940;2023-07-13T11:06:48;6.72;;;3.90;;
53207;SDS011;39093;52.788;6.940;2023-07-13T11:15:01;8.02;;;4.65;;
53207;SDS011;39093;52.788;6.940;2023-07-13T11:17:35;8.73;;;4.38;;
53207;SDS011;39093;52.788;6.940;2023-07-13T11:22:50;10.10;;;3.33;;
53207;SDS011;39093;52.788;6.940;2023-07-13T11:25:38;7.75;;;3.97;;
53207;SDS011;39093;52.788;6.940;2023-07-13T11:30:38;7.03;;;3.28;;
53207;SDS011;39093;52.788;6.940;2023-07-13T11:33:20;6.78;;;3.00;;
53207;SDS011;39093;52.788;6.940;2023-07-13T11:35:51;8.73;;;4.13;;
53207;SDS011;39093;52.788;6.940;2023-07-13T11:38:26;5.63;;;2.42;;
53207;SDS011;39093;52.788;6.940;2023-07-13T11:41:15;2.50;;;1.65;;
53207;SDS011;39093;52.788;6.940;2023-07-13T11:43:47;4.47;;;1.65;;
53207;SDS011;39093;52.788;6.940;2023-07-13T11:46:21;3.78;;;2.20;;
53207;SDS011;39093;52.788;6.940;2023-07-13T11:48:50;6.88;;;1.88;;
53207;SDS011;39093;52.788;6.940;2023-07-13T11:51:23;2.03;;;1.50;;
53207;SDS011;39093;52.788;6.940;2023-07-13T11:54:05;1.60;;;1.42;;
53207;SDS011;39093;52.788;6.940;2023-07-13T11:57:23;3.28;;;1.63;;
53207;SDS011;39093;52.788;6.940;2023-07-13T11:59:58;2.88;;;1.80;;
53207;SDS011;39093;52.788;6.940;2023-07-13T12:02:33;3.53;;;1.70;;
53207;SDS011;39093;52.788;6.940;2023-07-13T12:05:11;2.67;;;1.77;;
53207;SDS011;39093;52.788;6.940;2023-07-13T12:07:41;3.67;;;1.80;;
53207;SDS011;39093;52.788;6.940;2023-07-13T12:12:36;5.35;;;2.03;;
53207;SDS011;39093;52.788;6.940;2023-07-13T12:15:07;6.55;;;1.60;;
53207;SDS011;39093;52.788;6.940;2023-07-13T12:17:34;7.28;;;1.60;;
53207;SDS011;39093;52.788;6.940;2023-07-13T12:20:03;6.57;;;2.00;;
53207;SDS011;39093;52.788;6.940;2023-07-13T12:23:05;4.00;;;1.77;;
53207;SDS011;39093;52.788;6.940;2023-07-13T12:25:41;7.30;;;1.77;;
53207;SDS011;39093;52.788;6.940;2023-07-13T12:28:20;5.93;;;1.90;;
53207;SDS011;39093;52.788;6.940;2023-07-13T12:30:48;8.32;;;1.98;;
53207;SDS011;39093;52.788;6.940;2023-07-13T12:33:16;6.82;;;2.30;;
53207;SDS011;39093;52.788;6.940;2023-07-13T12:35:47;4.93;;;2.03;;
53207;SDS011;39093;52.788;6.940;2023-07-13T12:40:43;6.40;;;2.53;;
53207;SDS011;39093;52.788;6.940;2023-07-13T12:43:11;7.72;;;2.25;;
53207;SDS011;39093;52.788;6.940;2023-07-13T12:45:39;7.22;;;2.05;;
53207;SDS011;39093;52.788;6.940;2023-07-13T12:48:37;4.13;;;1.67;;
53207;SDS011;39093;52.788;6.940;2023-07-13T12:51:14;9.48;;;2.08;;
53207;SDS011;39093;52.788;6.940;2023-07-13T12:53:43;12.27;;;2.38;;
53207;SDS011;39093;52.788;6.940;2023-07-13T12:56:18;4.90;;;2.30;;
53207;SDS011;39093;52.788;6.940;2023-07-13T12:58:49;4.13;;;2.08;;
53207;SDS011;39093;52.788;6.940;2023-07-13T13:01:21;4.65;;;2.10;;
53207;SDS011;39093;52.788;6.940;2023-07-13T13:03:52;10.15;;;2.75;;
53207;SDS011;39093;52.788;6.940;2023-07-13T13:06:24;8.55;;;3.40;;
53207;SDS011;39093;52.788;6.940;2023-07-13T13:08:54;8.60;;;2.97;;
53207;SDS011;39093;52.788;6.940;2023-07-13T13:11:25;6.47;;;3.15;;
53207;SDS011;39093;52.788;6.940;2023-07-13T13:13:58;6.88;;;3.28;;
53207;SDS011;39093;52.788;6.940;2023-07-13T13:17:01;11.13;;;3.67;;
53207;SDS011;39093;52.788;6.940;2023-07-13T13:19:25;7.88;;;3.20;;
53207;SDS011;39093;52.788;6.940;2023-07-13T13:21:54;11.20;;;3.42;;
53207;SDS011;39093;52.788;6.940;2023-07-13T13:24:24;9.10;;;2.58;;
53207;SDS011;39093;52.788;6.940;2023-07-13T13:26:54;5.00;;;2.00;;
53207;SDS011;39093;52.788;6.940;2023-07-13T13:29:24;4.50;;;1.73;;
53207;SDS011;39093;52.788;6.940;2023-07-13T13:31:53;5.18;;;1.95;;
53207;SDS011;39093;52.788;6.940;2023-07-13T13:34:21;7.97;;;2.10;;
53207;SDS011;39093;52.788;6.940;2023-07-13T13:36:53;3.40;;;1.38;;
53207;SDS011;39093;52.788;6.940;2023-07-13T13:39:34;6.55;;;1.38;;
53207;SDS011;39093;52.788;6.940;2023-07-13T13:42:03;4.85;;;1.75;;
53207;SDS011;39093;52.788;6.940;2023-07-13T13:44:30;2.90;;;1.35;;
53207;SDS011;39093;52.788;6.940;2023-07-13T13:47:07;3.40;;;1.15;;
53207;SDS011;39093;52.788;6.940;2023-07-13T13:50:11;7.78;;;1.27;;
53207;SDS011;39093;52.788;6.940;2023-07-13T13:52:44;3.03;;;1.10;;
53207;SDS011;39093;52.788;6.940;2023-07-13T13:55:14;6.25;;;1.27;;
53207;SDS011;39093;52.788;6.940;2023-07-13T14:00:14;4.97;;;1.20;;
53207;SDS011;39093;52.788;6.940;2023-07-13T14:02:47;4.88;;;1.27;;
53207;SDS011;39093;52.788;6.940;2023-07-13T14:05:18;1.90;;;0.75;;
53207;SDS011;39093;52.788;6.940;2023-07-13T14:07:51;0.80;;;0.60;;
53207;SDS011;39093;52.788;6.940;2023-07-13T14:10:19;4.07;;;0.98;;
53207;SDS011;39093;52.788;6.940;2023-07-13T14:12:47;5.53;;;1.58;;
53207;SDS011;39093;52.788;6.940;2023-07-13T14:15:22;1.75;;;0.95;;
53207;SDS011;39093;52.788;6.940;2023-07-13T14:17:52;3.60;;;0.80;;
53207;SDS011;39093;52.788;6.940;2023-07-13T14:20:21;1.23;;;0.70;;
53207;SDS011;39093;52.788;6.940;2023-07-13T14:22:50;2.47;;;0.80;;
53207;SDS011;39093;52.788;6.940;2023-07-13T14:25:19;1.88;;;0.90;;
53207;SDS011;39093;52.788;6.940;2023-07-13T14:27:48;2.17;;;0.77;;
53207;SDS011;39093;52.788;6.940;2023-07-13T14:30:20;4.30;;;0.85;;
53207;SDS011;39093;52.788;6.940;2023-07-13T14:32:48;5.63;;;1.02;;
53207;SDS011;39093;52.788;6.940;2023-07-13T14:35:21;3.03;;;0.70;;
53207;SDS011;39093;52.788;6.940;2023-07-13T14:37:51;1.80;;;0.73;;
53207;SDS011;39093;52.788;6.940;2023-07-13T14:40:28;5.45;;;1.30;;
53207;SDS011;39093;52.788;6.940;2023-07-13T14:42:58;0.95;;;0.60;;
53207;SDS011;39093;52.788;6.940;2023-07-13T14:45:25;3.95;;;0.85;;
53207;SDS011;39093;52.788;6.940;2023-07-13T14:47:52;9.05;;;1.10;;
53207;SDS011;39093;52.788;6.940;2023-07-13T14:50:30;6.55;;;2.35;;
53207;SDS011;39093;52.788;6.940;2023-07-13T14:52:58;2.33;;;0.77;;
53207;SDS011;39093;52.788;6.940;2023-07-13T14:55:25;6.78;;;1.23;;
53207;SDS011;39093;52.788;6.940;2023-07-13T14:57:53;3.85;;;1.20;;
53207;SDS011;39093;52.788;6.940;2023-07-13T15:00:24;1.80;;;0.90;;
53207;SDS011;39093;52.788;6.940;2023-07-13T15:02:55;3.30;;;1.20;;
53207;SDS011;39093;52.788;6.940;2023-07-13T15:05:25;5.43;;;1.00;;
53207;SDS011;39093;52.788;6.940;2023-07-13T15:07:57;4.55;;;1.10;;
53207;SDS011;39093;52.788;6.940;2023-07-13T15:10:27;6.68;;;1.00;;
53207;SDS011;39093;52.788;6.940;2023-07-13T15:13:00;2.38;;;0.80;;
53207;SDS011;39093;52.788;6.940;2023-07-13T15:15:41;2.60;;;0.95;;
53207;SDS011;39093;52.788;6.940;2023-07-13T15:18:11;2.60;;;0.82;;
53207;SDS011;39093;52.788;6.940;2023-07-13T15:20:40;5.75;;;0.82;;
53207;SDS011;39093;52.788;6.940;2023-07-13T15:23:08;2.92;;;1.25;;
53207;SDS011;39093;52.788;6.940;2023-07-13T15:28:07;3.65;;;1.00;;
53207;SDS011;39093;52.788;6.940;2023-07-13T15:30:36;4.15;;;1.08;;
53207;SDS011;39093;52.788;6.940;2023-07-13T15:33:17;2.38;;;0.77;;
53207;SDS011;39093;52.788;6.940;2023-07-13T15:35:53;2.72;;;0.70;;
53207;SDS011;39093;52.788;6.940;2023-07-13T15:40:49;3.28;;;0.85;;
53207;SDS011;39093;52.788;6.940;2023-07-13T15:43:17;1.67;;;0.70;;
53207;SDS011;39093;52.788;6.940;2023-07-13T15:45:46;3.17;;;1.45;;
53207;SDS011;39093;52.788;6.940;2023-07-13T15:48:18;3.53;;;1.10;;
53207;SDS011;39093;52.788;6.940;2023-07-13T15:51:05;1.95;;;0.95;;
53207;SDS011;39093;52.788;6.940;2023-07-13T15:53:38;4.25;;;0.95;;
53207;SDS011;39093;52.788;6.940;2023-07-13T15:56:24;5.20;;;1.38;;
53207;SDS011;39093;52.788;6.940;2023-07-13T15:58:55;5.40;;;1.63;;
53207;SDS011;39093;52.788;6.940;2023-07-13T16:01:23;7.32;;;1.60;;